createdAt,value
2023-01-27T00:00:20.501Z,54.91
2023-01-27T00:01:20.450Z,56.46
2023-01-27T00:02:20.422Z,55.76
2023-01-27T00:03:20.411Z,55.75
2023-01-27T00:04:20.301Z,56.99
2023-01-27T00:05:20.260Z,55.30
2023-01-27T00:06:20.219Z,57.02
2023-01-27T00:07:20.168Z,52.02
2023-01-27T00:08:20.134Z,56.31
2023-01-27T00:09:20.081Z,57.93
2023-01-27T00:10:20.049Z,56.48
2023-01-27T00:11:20.003Z,54.62
2023-01-27T00:12:19.972Z,54.87
2023-01-27T00:13:19.928Z,55.44
2023-01-27T00:14:19.888Z,56.46
2023-01-27T00:15:19.857Z,56.23
2023-01-27T00:16:19.891Z,56.32
2023-01-27T00:17:19.752Z,54.68
2023-01-27T00:18:19.707Z,60.04
2023-01-27T00:19:19.669Z,56.88
2023-01-27T00:20:19.611Z,59.60
2023-01-27T00:21:19.582Z,53.72
2023-01-27T00:22:19.533Z,60.12
2023-01-27T00:23:19.478Z,58.34
2023-01-27T00:24:19.466Z,54.68
2023-01-27T00:25:19.396Z,57.18
2023-01-27T00:26:19.353Z,57.55
2023-01-27T00:27:19.311Z,58.87
2023-01-27T00:28:19.258Z,56.14
2023-01-27T00:29:19.231Z,59.30
2023-01-27T00:30:19.197Z,56.30
2023-01-27T00:31:19.224Z,61.71
2023-01-27T00:32:19.102Z,55.39
2023-01-27T00:33:19.048Z,59.68
2023-01-27T00:34:19.009Z,57.57
2023-01-27T00:35:18.976Z,57.21
2023-01-27T00:36:18.920Z,55.91
2023-01-27T00:37:18.875Z,57.07
2023-01-27T00:38:18.831Z,56.60
2023-01-27T00:39:18.805Z,55.82
2023-01-27T00:40:18.763Z,56.65
2023-01-27T00:41:18.729Z,56.76
2023-01-27T00:42:18.672Z,57.51
2023-01-27T00:43:18.635Z,57.71
2023-01-27T00:44:18.593Z,57.60
2023-01-27T00:45:18.562Z,59.71
2023-01-27T00:46:18.553Z,58.16
2023-01-27T00:47:18.474Z,59.82
2023-01-27T00:48:18.431Z,59.84
2023-01-27T00:49:18.408Z,58.74
2023-01-27T00:50:18.352Z,57.47
2023-01-27T00:51:18.326Z,58.18
2023-01-27T00:52:18.278Z,58.49
2023-01-27T00:53:18.255Z,59.59
2023-01-27T00:54:18.213Z,59.64
2023-01-27T00:55:18.173Z,60.08
2023-01-27T00:56:18.139Z,59.21
2023-01-27T00:57:18.094Z,59.00
2023-01-27T00:58:18.055Z,57.17
2023-01-27T00:59:18.012Z,58.12
2023-01-27T01:00:18.090Z,56.75
2023-01-27T01:01:17.948Z,58.15
2023-01-27T01:02:17.904Z,63.60
2023-01-27T01:03:17.866Z,58.58
2023-01-27T01:04:17.815Z,57.13
2023-01-27T01:05:17.780Z,58.90
2023-01-27T01:06:17.761Z,60.85
2023-01-27T01:07:17.703Z,59.11
2023-01-27T01:08:17.671Z,59.49
2023-01-27T01:09:17.640Z,59.17
2023-01-27T01:10:17.589Z,58.12
2023-01-27T01:11:17.531Z,57.28
2023-01-27T01:12:17.485Z,58.09
2023-01-27T01:13:17.434Z,56.76
2023-01-27T01:14:17.407Z,61.70
2023-01-27T01:15:17.352Z,57.75
2023-01-27T01:16:17.376Z,61.23
2023-01-27T01:17:17.262Z,62.04
2023-01-27T01:18:17.236Z,61.88
2023-01-27T01:19:17.171Z,57.64
2023-01-27T01:20:17.134Z,59.68
2023-01-27T01:21:17.090Z,59.86
2023-01-27T01:22:17.024Z,60.04
2023-01-27T01:23:17.001Z,60.72
2023-01-27T01:24:17.036Z,59.98
2023-01-27T01:25:16.895Z,60.42
2023-01-27T01:26:16.847Z,61.03
2023-01-27T01:27:16.790Z,58.18
2023-01-27T01:28:16.741Z,61.26
2023-01-27T01:29:16.697Z,61.43
2023-01-27T01:30:16.652Z,60.31
2023-01-27T01:31:16.668Z,63.23
2023-01-27T01:32:16.555Z,59.61
2023-01-27T01:33:16.503Z,58.18
2023-01-27T01:34:16.459Z,59.65
2023-01-27T01:35:16.415Z,61.82
2023-01-27T01:36:16.401Z,58.53
2023-01-27T01:37:16.334Z,59.86
2023-01-27T01:38:16.293Z,57.94
2023-01-27T01:39:16.246Z,58.07
2023-01-27T01:40:16.207Z,59.82
2023-01-27T01:41:16.178Z,60.05
2023-01-27T01:42:16.115Z,60.06
2023-01-27T01:43:16.095Z,60.21
2023-01-27T01:44:16.031Z,61.23
2023-01-27T01:45:15.998Z,64.13
2023-01-27T01:46:15.971Z,57.61
2023-01-27T01:47:15.926Z,60.65
2023-01-27T01:48:15.871Z,58.14
2023-01-27T01:49:15.859Z,58.19
2023-01-27T01:50:15.785Z,61.52
2023-01-27T01:51:15.762Z,59.03
2023-01-27T01:52:15.707Z,58.40
2023-01-27T01:53:15.671Z,58.75
2023-01-27T01:54:15.607Z,60.26
2023-01-27T01:55:15.573Z,61.16
2023-01-27T01:56:15.527Z,58.39
2023-01-27T01:57:15.501Z,58.65
2023-01-27T01:58:15.474Z,58.77
2023-01-27T01:59:15.423Z,59.31
2023-01-27T02:00:15.782Z,57.42
2023-01-27T02:01:15.429Z,62.24
2023-01-27T02:02:15.338Z,58.07
2023-01-27T02:03:15.263Z,59.01
2023-01-27T02:04:15.226Z,62.68
2023-01-27T02:05:15.546Z,58.95
2023-01-27T02:06:15.144Z,56.53
2023-01-27T02:07:15.101Z,59.76
2023-01-27T02:08:15.062Z,58.49
2023-01-27T02:09:15.017Z,57.86
2023-01-27T02:10:15.317Z,58.51
2023-01-27T02:11:14.929Z,56.61
2023-01-27T02:12:14.903Z,56.94
2023-01-27T02:13:14.856Z,59.14
2023-01-27T02:14:14.820Z,58.67
2023-01-27T02:15:15.014Z,58.90
2023-01-27T02:16:14.775Z,57.51
2023-01-27T02:17:14.709Z,59.54
2023-01-27T02:18:14.656Z,60.23
2023-01-27T02:19:14.622Z,59.25
2023-01-27T02:20:14.588Z,57.18
2023-01-27T02:21:14.554Z,60.49
2023-01-27T02:22:14.523Z,58.86
2023-01-27T02:23:14.464Z,56.40
2023-01-27T02:24:14.447Z,58.27
2023-01-27T02:25:14.776Z,56.04
2023-01-27T02:26:14.341Z,56.27
2023-01-27T02:27:14.323Z,56.74
2023-01-27T02:28:14.253Z,56.33
2023-01-27T02:29:14.217Z,57.85
2023-01-27T02:30:14.175Z,55.57
2023-01-27T02:31:14.184Z,57.96
2023-01-27T02:32:14.092Z,57.20
2023-01-27T02:33:14.075Z,58.42
2023-01-27T02:34:13.996Z,58.97
2023-01-27T02:35:14.268Z,57.68
2023-01-27T02:36:13.916Z,56.61
2023-01-27T02:37:13.898Z,60.16
2023-01-27T02:38:13.828Z,58.56
2023-01-27T02:39:13.788Z,56.38
2023-01-27T02:40:13.744Z,59.72
2023-01-27T02:41:13.699Z,58.23
2023-01-27T02:42:13.677Z,57.49
2023-01-27T02:43:13.619Z,57.37
2023-01-27T02:44:13.576Z,56.91
2023-01-27T02:45:13.989Z,55.48
2023-01-27T03:10:12.591Z,55.94
2023-01-27T03:11:12.537Z,57.22
2023-01-27T03:12:12.498Z,57.67
2023-01-27T03:13:12.470Z,57.94
2023-01-27T03:14:12.426Z,51.57
2023-01-27T03:15:12.760Z,58.04
2023-01-27T03:16:14.507Z,56.40
2023-01-27T03:17:12.305Z,54.71
2023-01-27T03:18:12.276Z,55.36
2023-01-27T03:19:12.233Z,55.22
2023-01-27T03:20:12.192Z,58.38
2023-01-27T03:21:12.163Z,58.47
2023-01-27T03:22:12.123Z,58.55
2023-01-27T03:23:12.076Z,56.34
2023-01-27T03:24:12.098Z,56.61
2023-01-27T03:25:12.274Z,56.46
2023-01-27T03:26:11.958Z,57.48
2023-01-27T03:27:11.919Z,55.89
2023-01-27T03:28:11.879Z,54.67
2023-01-27T03:29:11.834Z,55.78
2023-01-27T03:30:11.792Z,51.38
2023-01-27T03:31:11.834Z,54.68
2023-01-27T03:32:11.705Z,52.48
2023-01-27T03:33:11.664Z,53.85
2023-01-27T03:34:11.634Z,53.76
2023-01-27T03:35:11.854Z,52.89
2023-01-27T03:36:11.551Z,53.05
2023-01-27T03:37:11.481Z,54.92
2023-01-27T03:38:11.447Z,54.72
2023-01-27T03:39:11.416Z,54.29
2023-01-27T03:40:11.367Z,55.15
2023-01-27T03:41:11.325Z,54.21
2023-01-27T03:42:11.287Z,54.30
2023-01-27T03:43:11.236Z,54.89
2023-01-27T03:44:11.187Z,54.01
2023-01-27T03:45:11.453Z,52.30
2023-01-27T03:46:11.141Z,51.75
2023-01-27T03:47:11.057Z,56.73
2023-01-27T03:48:11.012Z,51.99
2023-01-27T03:49:10.965Z,53.69
2023-01-27T03:50:10.923Z,53.38
2023-01-27T03:51:10.876Z,50.99
2023-01-27T03:52:10.820Z,52.88
2023-01-27T03:53:10.776Z,55.69
2023-01-27T03:54:10.744Z,51.15
2023-01-27T03:55:11.284Z,53.54
2023-01-27T03:56:10.663Z,53.33
2023-01-27T03:57:10.605Z,54.05
2023-01-27T03:58:10.550Z,50.06
2023-01-27T03:59:10.511Z,53.02
2023-01-27T04:00:10.459Z,52.86
2023-01-27T04:01:10.466Z,52.72
2023-01-27T04:02:10.364Z,53.62
2023-01-27T04:03:10.318Z,52.07
2023-01-27T04:04:10.273Z,53.81
2023-01-27T04:05:10.240Z,52.18
2023-01-27T04:06:10.165Z,55.05
2023-01-27T04:07:10.135Z,51.83
2023-01-27T04:08:10.081Z,49.11
2023-01-27T04:09:10.043Z,55.03
2023-01-27T04:10:10.003Z,52.95
2023-01-27T04:11:09.969Z,51.22
2023-01-27T04:12:09.908Z,50.48
2023-01-27T04:13:09.857Z,53.42
2023-01-27T04:14:09.810Z,50.34
2023-01-27T04:15:09.820Z,50.76
2023-01-27T04:16:09.752Z,52.58
2023-01-27T04:17:09.686Z,52.50
2023-01-27T04:18:09.647Z,54.23
2023-01-27T04:19:09.590Z,51.29
2023-01-27T04:20:09.545Z,51.18
2023-01-27T04:21:09.539Z,49.80
2023-01-27T04:22:09.462Z,51.92
2023-01-27T04:23:09.413Z,50.44
2023-01-27T04:24:09.442Z,49.86
2023-01-27T04:25:10.364Z,50.05
2023-01-27T04:26:09.281Z,53.17
2023-01-27T04:27:09.245Z,47.92
2023-01-27T04:28:09.204Z,50.74
2023-01-27T04:29:09.161Z,52.01
2023-01-27T04:30:09.128Z,53.09
2023-01-27T04:31:09.126Z,48.91
2023-01-27T04:32:09.019Z,52.64
2023-01-27T04:33:08.974Z,53.68
2023-01-27T04:34:08.931Z,50.56
2023-01-27T04:35:08.891Z,50.70
2023-01-27T04:36:08.846Z,50.49
2023-01-27T04:37:08.799Z,51.21
2023-01-27T04:38:08.760Z,50.72
2023-01-27T04:39:08.716Z,48.52
2023-01-27T04:40:08.669Z,48.94
2023-01-27T04:41:08.626Z,49.26
2023-01-27T04:42:08.588Z,48.70
2023-01-27T04:43:08.528Z,44.14
2023-01-27T04:44:08.492Z,48.88
2023-01-27T04:45:08.438Z,49.15
2023-01-27T04:46:08.457Z,45.87
2023-01-27T04:47:08.358Z,44.79
2023-01-27T04:48:08.310Z,46.75
2023-01-27T04:49:08.263Z,46.06
2023-01-27T04:50:08.218Z,46.91
2023-01-27T04:51:08.167Z,46.23
2023-01-27T04:52:08.122Z,48.48
2023-01-27T04:53:08.079Z,49.24
2023-01-27T04:54:08.063Z,49.33
2023-01-27T04:55:08.007Z,48.57
2023-01-27T04:56:07.964Z,46.62
2023-01-27T04:57:07.916Z,41.89
2023-01-27T04:58:07.871Z,47.37
2023-01-27T04:59:07.837Z,44.87
2023-01-27T05:00:07.802Z,45.14
2023-01-27T05:01:07.747Z,43.51
2023-01-27T05:02:07.711Z,49.30
2023-01-27T05:03:07.675Z,45.60
2023-01-27T05:04:07.617Z,46.31
2023-01-27T05:05:07.562Z,45.68
2023-01-27T05:06:07.513Z,47.33
2023-01-27T05:07:07.483Z,43.58
2023-01-27T05:08:07.441Z,46.20
2023-01-27T05:09:07.376Z,43.39
2023-01-27T05:10:07.349Z,42.19
2023-01-27T05:11:07.311Z,44.05
2023-01-27T05:12:07.250Z,44.04
2023-01-27T05:13:07.208Z,42.92
2023-01-27T05:14:07.175Z,44.50
2023-01-27T05:15:07.117Z,44.95
2023-01-27T05:16:07.139Z,44.71
2023-01-27T05:17:07.167Z,43.67
2023-01-27T05:18:06.984Z,42.38
2023-01-27T05:19:06.944Z,43.98
2023-01-27T05:20:06.930Z,44.66
2023-01-27T05:21:06.866Z,41.61
2023-01-27T05:22:06.811Z,44.48
2023-01-27T05:23:06.749Z,44.42
2023-01-27T05:24:06.765Z,43.61
2023-01-27T05:25:06.672Z,45.92
2023-01-27T05:26:06.614Z,43.50
2023-01-27T05:27:06.569Z,45.74
2023-01-27T05:28:06.520Z,41.80
2023-01-27T05:29:06.477Z,42.83
2023-01-27T05:30:06.445Z,45.03
2023-01-27T05:31:06.428Z,45.13
2023-01-27T05:32:06.348Z,42.58
2023-01-27T05:33:06.306Z,42.16
2023-01-27T05:34:06.257Z,43.22
2023-01-27T05:35:06.215Z,42.50
2023-01-27T05:36:06.171Z,43.26
2023-01-27T05:37:06.122Z,44.14
2023-01-27T05:38:06.088Z,41.85
2023-01-27T05:39:07.849Z,39.13
2023-01-27T05:40:05.999Z,45.19
2023-01-27T05:41:05.952Z,43.78
2023-01-27T05:42:05.918Z,42.89
2023-01-27T05:43:05.879Z,41.92
2023-01-27T05:44:05.870Z,40.95
2023-01-27T05:45:05.809Z,42.10
2023-01-27T05:46:05.768Z,43.50
2023-01-27T05:47:05.719Z,41.11
2023-01-27T05:48:05.671Z,42.86
2023-01-27T05:49:05.654Z,41.86
2023-01-27T05:50:05.588Z,42.90
2023-01-27T05:51:05.541Z,45.00
2023-01-27T05:52:05.518Z,42.69
2023-01-27T05:53:05.464Z,43.15
2023-01-27T05:54:05.459Z,43.74
2023-01-27T05:55:05.399Z,43.11
2023-01-27T05:56:05.358Z,42.76
2023-01-27T05:57:05.308Z,40.79
2023-01-27T05:58:05.274Z,40.47
2023-01-27T05:59:05.244Z,41.11
2023-01-27T06:00:05.198Z,40.91
2023-01-27T06:01:05.138Z,40.93
2023-01-27T06:02:05.119Z,39.10
2023-01-27T06:03:05.098Z,40.99
2023-01-27T06:04:05.040Z,44.09
2023-01-27T06:05:05.000Z,43.30
2023-01-27T06:06:04.948Z,42.56
2023-01-27T06:07:04.913Z,42.62
2023-01-27T06:08:04.864Z,43.88
2023-01-27T06:09:04.882Z,44.33
2023-01-27T06:10:04.784Z,42.57
2023-01-27T06:11:04.763Z,41.57
2023-01-27T06:12:04.707Z,42.62
2023-01-27T06:13:04.683Z,43.50
2023-01-27T06:14:04.705Z,41.95
2023-01-27T06:15:04.582Z,42.27
2023-01-27T06:16:04.634Z,42.23
2023-01-27T06:17:04.519Z,42.59
2023-01-27T06:18:04.471Z,43.40
2023-01-27T06:19:04.434Z,43.39
2023-01-27T06:20:04.394Z,43.34
2023-01-27T06:21:04.343Z,45.15
2023-01-27T06:22:04.308Z,42.78
2023-01-27T06:23:04.258Z,41.27
2023-01-27T06:24:04.363Z,45.62
2023-01-27T06:25:04.189Z,42.64
2023-01-27T06:26:04.179Z,40.02
2023-01-27T06:27:04.106Z,42.15
2023-01-27T06:28:04.074Z,43.03
2023-01-27T06:29:04.020Z,44.79
2023-01-27T06:30:03.984Z,41.31
2023-01-27T06:31:03.985Z,42.71
2023-01-27T06:32:03.926Z,41.90
2023-01-27T06:33:03.848Z,44.94
2023-01-27T06:34:03.799Z,42.93
2023-01-27T06:35:03.749Z,42.29
2023-01-27T06:36:03.708Z,44.73
2023-01-27T06:37:03.671Z,45.15
2023-01-27T06:38:03.649Z,45.20
2023-01-27T06:39:03.584Z,45.33
2023-01-27T07:04:03.501Z,159.13
2023-01-27T07:18:01.845Z,232.40
2023-01-27T07:19:01.769Z,240.26
2023-01-27T07:20:01.794Z,245.92
2023-01-27T07:21:01.678Z,250.00
2023-01-27T07:22:01.603Z,247.85
2023-01-27T07:23:01.628Z,247.94
2023-01-27T07:24:01.726Z,250.00
2023-01-27T07:25:01.449Z,248.05
2023-01-27T07:26:02.091Z,249.81
2023-01-27T07:27:01.317Z,249.51
2023-01-27T07:28:01.273Z,247.53
2023-01-27T07:29:01.173Z,248.18
2023-01-27T07:30:01.140Z,249.20
2023-01-27T07:31:01.065Z,248.29
2023-01-27T07:32:01.028Z,248.40
2023-01-27T07:34:00.883Z,249.40
2023-01-27T07:35:00.819Z,249.80
2023-01-27T07:36:01.168Z,253.32
2023-01-27T07:37:00.699Z,253.59
2023-01-27T07:38:00.684Z,249.93
2023-01-27T07:39:00.579Z,245.71
2023-01-27T07:40:00.632Z,249.65
2023-01-27T07:41:00.436Z,249.02
2023-01-27T07:42:00.435Z,249.96
2023-01-27T07:43:00.323Z,247.53
2023-01-27T07:44:00.252Z,242.89
2023-01-27T07:45:00.253Z,235.28
2023-01-27T07:46:00.202Z,233.52
2023-01-27T07:47:00.149Z,225.65
2023-01-27T07:48:00.051Z,219.42
2023-01-27T07:48:59.941Z,216.30
2023-01-27T07:49:59.885Z,211.78
2023-01-27T07:50:59.830Z,214.19
2023-01-27T07:51:59.782Z,202.12
2023-01-27T07:52:59.722Z,190.99
2023-01-27T07:54:01.977Z,179.02
2023-01-27T07:54:59.603Z,185.70
2023-01-27T07:55:59.538Z,189.53
2023-01-27T07:56:59.479Z,183.56
2023-01-27T07:57:59.432Z,178.19
2023-01-27T07:58:59.359Z,169.21
2023-01-27T07:59:59.307Z,161.16
2023-01-27T08:00:59.275Z,157.66
2023-01-27T08:01:59.213Z,166.06
2023-01-27T08:02:59.211Z,160.32
2023-01-27T08:03:59.079Z,153.00
2023-01-27T08:04:59.024Z,144.48
2023-01-27T08:05:58.985Z,135.75
2023-01-27T08:06:58.938Z,137.16
2023-01-27T08:07:59.251Z,144.95
2023-01-27T08:08:58.807Z,139.48
2023-01-27T08:09:58.757Z,132.12
2023-01-27T08:10:58.688Z,124.45
2023-01-27T08:11:58.641Z,115.08
2023-01-27T08:12:58.605Z,124.45
2023-01-27T08:13:58.528Z,127.54
2023-01-27T08:14:58.565Z,121.77
2023-01-27T08:15:58.427Z,114.82
2023-01-27T08:16:58.360Z,108.24
2023-01-27T08:17:58.308Z,108.02
2023-01-27T08:18:58.300Z,110.36
2023-01-27T08:19:58.220Z,117.65
2023-01-27T08:20:58.150Z,113.59
2023-01-27T08:21:58.106Z,103.87
2023-01-27T08:22:58.087Z,95.05
2023-01-27T08:23:58.067Z,97.40
2023-01-27T08:24:57.949Z,101.41
2023-01-27T08:25:57.898Z,106.63
2023-01-27T08:26:57.854Z,97.51
2023-01-27T08:27:57.790Z,89.28
2023-01-27T08:28:57.746Z,88.92
2023-01-27T08:29:57.697Z,90.58
2023-01-27T08:30:57.741Z,95.52
2023-01-27T08:31:57.644Z,94.57
2023-01-27T08:32:57.549Z,87.71
2023-01-27T08:33:57.497Z,79.52
2023-01-27T08:34:57.452Z,86.82
2023-01-27T08:35:57.395Z,89.51
2023-01-27T08:36:57.365Z,87.56
2023-01-27T08:37:57.313Z,82.21
2023-01-27T08:38:57.257Z,72.85
2023-01-27T08:39:57.218Z,67.40
2023-01-27T08:40:57.164Z,69.84
2023-01-27T08:41:57.122Z,74.17
2023-01-27T08:42:57.088Z,78.97
2023-01-27T08:43:57.034Z,45.75
2023-01-27T08:44:57.018Z,25.00
2023-01-27T08:45:57.000Z,25.04
2023-01-27T08:46:56.908Z,20.20
2023-01-27T08:47:56.875Z,8.11
2023-01-27T08:48:56.831Z,12.89
2023-01-27T08:49:56.796Z,0.00
2023-01-27T08:50:56.765Z,0.00
2023-01-27T08:51:56.729Z,0.00
2023-01-27T08:52:56.704Z,0.00
2023-01-27T08:53:56.678Z,4.94
2023-01-27T08:54:56.642Z,27.53
2023-01-27T08:55:56.609Z,23.75
2023-01-27T08:56:56.597Z,22.54
2023-01-27T08:57:56.566Z,25.00
2023-01-27T08:58:56.541Z,35.19
2023-01-27T08:59:56.505Z,54.29
2023-01-27T09:00:56.472Z,71.59
2023-01-27T09:01:56.437Z,78.02
2023-01-27T09:02:56.406Z,79.10
2023-01-27T09:03:56.377Z,86.55
2023-01-27T09:04:56.395Z,89.24
2023-01-27T09:05:56.308Z,96.94
2023-01-27T09:06:56.247Z,100.34
2023-01-27T09:07:56.210Z,95.01
2023-01-27T09:08:56.179Z,90.58
2023-01-27T09:10:12.395Z,91.01
2023-01-27T09:10:57.101Z,91.07
2023-01-27T09:11:56.095Z,91.13
2023-01-27T09:12:56.021Z,92.29
2023-01-27T09:13:56.482Z,91.80
2023-01-27T09:16:51.059Z,25.00
2023-01-27T10:40:46.201Z,222.92
2023-01-27T10:41:46.164Z,225.43
2023-01-27T10:42:46.078Z,229.62
2023-01-27T10:43:46.007Z,235.70
2023-01-27T10:45:45.934Z,224.51
2023-01-27T10:46:45.858Z,223.06
2023-01-27T10:47:45.746Z,241.42
2023-01-27T10:48:45.697Z,125.06
2023-01-27T10:49:45.606Z,188.62
2023-01-27T10:50:45.556Z,171.61
2023-01-27T10:51:45.499Z,158.52
2023-01-27T10:52:45.445Z,151.42
2023-01-27T10:53:45.383Z,161.70
2023-01-27T10:54:45.390Z,168.21
2023-01-27T10:55:45.276Z,174.41
2023-01-27T10:56:45.224Z,165.03
2023-01-27T10:57:45.175Z,134.57
2023-01-27T10:58:45.108Z,135.54
2023-01-27T10:59:52.215Z,132.31
2023-01-27T11:01:18.150Z,133.03
2023-01-27T11:01:45.955Z,132.91
2023-01-27T11:02:44.928Z,135.11
2023-01-27T11:03:44.857Z,128.84
2023-01-27T12:03:41.247Z,193.25
2023-01-27T12:04:41.305Z,204.77
2023-01-27T12:05:41.081Z,205.19
2023-01-27T12:06:41.027Z,206.16
2023-01-27T12:07:40.927Z,200.84
2023-01-27T12:08:40.882Z,176.44
2023-01-27T12:09:40.778Z,185.89
2023-01-27T12:10:40.710Z,200.61
2023-01-27T12:11:40.637Z,210.42
2023-01-27T12:12:40.547Z,215.42
2023-01-27T12:13:40.456Z,193.42
2023-01-27T12:14:40.375Z,175.99
2023-01-27T12:15:40.341Z,182.69
2023-01-27T12:17:40.170Z,217.23
2023-01-27T12:18:40.074Z,206.49
2023-01-27T12:19:39.997Z,191.93
2023-01-27T12:20:39.914Z,171.67
2023-01-27T12:21:39.828Z,162.18
2023-01-27T12:22:39.744Z,170.50
2023-01-27T12:23:39.659Z,183.73
2023-01-27T12:24:39.567Z,184.74
2023-01-27T12:25:39.479Z,190.42
2023-01-27T12:26:39.363Z,194.84
2023-01-27T12:27:39.461Z,187.08
2023-01-27T12:28:39.142Z,177.81
2023-01-27T12:29:39.034Z,176.00
2023-01-27T12:30:38.916Z,189.94
2023-01-27T12:31:38.908Z,201.44
2023-01-27T12:32:38.679Z,193.64
2023-01-27T12:33:38.649Z,181.09
2023-01-27T12:34:38.478Z,181.77
2023-01-27T12:35:38.391Z,184.41
2023-01-27T12:36:38.300Z,184.79
2023-01-27T12:37:38.188Z,188.00
2023-01-27T12:38:38.113Z,193.83
2023-01-27T12:39:38.050Z,195.76
2023-01-27T12:40:37.931Z,190.94
2023-01-27T12:41:37.847Z,201.96
2023-01-27T12:42:37.765Z,208.83
2023-01-27T12:43:37.671Z,210.40
2023-01-27T12:44:37.612Z,207.77
2023-01-27T12:45:37.510Z,204.75
2023-01-27T12:46:37.489Z,204.93
2023-01-27T12:47:37.358Z,205.35
2023-01-27T12:48:37.287Z,206.62
2023-01-27T12:49:37.210Z,206.47
2023-01-27T12:50:37.125Z,207.31
2023-01-27T12:51:37.046Z,188.57
2023-01-27T12:52:36.993Z,179.45
2023-01-27T12:53:36.890Z,191.61
2023-01-27T12:54:36.820Z,190.04
2023-01-27T12:55:36.751Z,172.35
2023-01-27T12:56:36.651Z,167.90
2023-01-27T12:57:36.579Z,165.40
2023-01-27T12:58:36.499Z,165.68
2023-01-27T12:59:36.429Z,167.82
2023-01-27T13:00:36.383Z,166.25
2023-01-27T13:01:36.354Z,156.20
2023-01-27T13:02:36.219Z,155.16
2023-01-27T13:03:36.155Z,152.23
2023-01-27T13:04:37.500Z,164.10
2023-01-27T13:05:36.020Z,165.65
2023-01-27T13:06:35.933Z,150.58
2023-01-27T13:07:35.873Z,144.48
2023-01-27T13:08:35.792Z,139.32
2023-01-27T13:09:35.719Z,133.76
2023-01-27T13:10:35.655Z,151.92
2023-01-27T13:11:35.590Z,152.00
2023-01-27T13:12:35.509Z,145.36
2023-01-27T13:13:35.463Z,136.61
2023-01-27T13:14:35.405Z,128.66
2023-01-27T13:15:35.313Z,128.04
2023-01-27T13:16:35.323Z,146.69
2023-01-27T13:17:35.173Z,139.14
2023-01-27T13:18:35.111Z,122.99
2023-01-27T13:19:35.932Z,119.27
2023-01-27T13:20:34.979Z,117.24
2023-01-27T13:21:34.915Z,117.63
2023-01-27T13:22:34.834Z,130.17
2023-01-27T13:23:34.784Z,129.02
2023-01-27T13:24:34.698Z,122.32
2023-01-27T14:19:31.301Z,88.59
2023-01-27T14:22:31.118Z,82.87
2023-01-27T14:24:31.116Z,87.20
2023-01-27T14:25:30.938Z,85.41
2023-01-27T14:26:30.897Z,82.76
2023-01-27T14:28:30.842Z,81.73
2023-01-27T14:33:30.470Z,75.90
2023-01-27T14:36:30.293Z,80.94
2023-01-27T14:38:30.184Z,72.68
2023-01-27T14:39:30.118Z,71.19
2023-01-27T14:40:30.048Z,76.78
2023-01-27T14:41:29.991Z,76.64
2023-01-27T14:42:29.933Z,81.20
2023-01-27T14:43:29.883Z,75.44
2023-01-27T14:44:38.403Z,69.79
2023-01-27T14:46:29.781Z,71.13
2023-01-27T14:47:29.654Z,72.90
2023-01-27T14:48:29.587Z,74.13
2023-01-27T14:49:29.517Z,69.41
2023-01-27T14:50:30.403Z,68.38
2023-01-27T14:51:29.451Z,67.78
2023-01-27T14:52:29.326Z,73.89
2023-01-27T14:53:29.291Z,76.24
2023-01-27T14:54:29.220Z,61.19
2023-01-27T14:55:29.151Z,61.87
2023-01-27T14:56:29.088Z,69.60
2023-01-27T14:57:29.039Z,69.13
2023-01-27T14:58:28.992Z,68.90
2023-01-27T14:59:28.927Z,66.85
2023-01-27T15:00:28.898Z,66.67
2023-01-27T15:01:28.804Z,64.12
2023-01-27T15:02:28.757Z,66.95
2023-01-27T15:03:28.687Z,66.54
2023-01-27T15:04:28.653Z,71.14
2023-01-27T15:05:28.576Z,63.37
2023-01-27T15:06:28.521Z,56.31
2023-01-27T15:07:28.460Z,61.57
2023-01-27T15:08:28.388Z,64.85
2023-01-27T15:09:28.324Z,63.69
2023-01-27T15:10:28.285Z,67.63
2023-01-27T15:11:28.227Z,57.53
2023-01-27T15:12:28.159Z,51.14
2023-01-27T15:13:28.109Z,55.01
2023-01-27T15:14:28.061Z,59.70
2023-01-27T15:15:27.990Z,61.92
2023-01-27T15:16:27.971Z,60.08
2023-01-27T15:17:27.873Z,52.97
2023-01-27T15:18:27.798Z,54.14
2023-01-27T15:19:27.778Z,56.68
2023-01-27T15:20:27.689Z,59.81
2023-01-27T15:21:27.626Z,63.59
2023-01-27T15:22:27.574Z,48.61
2023-01-27T15:23:27.534Z,47.79
2023-01-27T15:24:27.535Z,51.41
2023-01-27T15:25:27.398Z,55.05
2023-01-27T15:26:27.372Z,55.50
2023-01-27T15:27:27.306Z,54.02
2023-01-27T15:28:27.249Z,50.44
2023-01-27T15:29:27.190Z,51.08
2023-01-27T15:30:27.128Z,48.24
2023-01-27T15:31:27.220Z,55.38
2023-01-27T15:32:27.389Z,60.94
2023-01-27T15:33:26.966Z,50.67
2023-01-27T15:34:26.894Z,46.88
2023-01-27T15:35:26.865Z,54.41
2023-01-27T15:36:26.793Z,57.31
2023-01-27T15:37:26.782Z,55.05
2023-01-27T15:38:26.665Z,57.30
2023-01-27T15:39:40.541Z,49.93
2023-01-27T15:40:27.573Z,50.10
2023-01-27T15:41:26.501Z,50.20
2023-01-27T15:42:26.450Z,51.52
2023-01-27T15:43:26.378Z,54.26
2023-01-27T15:44:26.330Z,50.11
2023-01-27T15:45:26.294Z,43.22
2023-01-27T15:46:26.209Z,50.11
2023-01-27T15:47:26.145Z,50.70
2023-01-27T15:48:26.101Z,52.16
2023-01-27T15:49:26.061Z,57.41
2023-01-27T15:50:25.995Z,49.36
2023-01-27T15:51:25.936Z,43.77
2023-01-27T15:52:25.871Z,44.73
2023-01-27T15:53:25.814Z,50.78
2023-01-27T15:54:25.765Z,50.88
2023-01-27T15:55:25.713Z,45.91
2023-01-27T15:56:25.646Z,33.21
2023-01-27T15:57:25.692Z,38.18
2023-01-27T15:58:25.533Z,46.08
2023-01-27T15:59:25.472Z,49.78
2023-01-27T16:00:25.413Z,52.71
2023-01-27T16:01:25.417Z,40.93
2023-01-27T16:02:25.359Z,34.65
2023-01-27T16:03:25.278Z,44.86
2023-01-27T16:04:25.221Z,49.26
2023-01-27T16:05:25.151Z,48.14
2023-01-27T16:06:25.079Z,42.43
2023-01-27T16:07:25.041Z,41.39
2023-01-27T16:08:24.971Z,41.82
2023-01-27T16:09:24.918Z,46.56
2023-01-27T16:10:24.880Z,47.51
2023-01-27T16:11:24.829Z,49.73
2023-01-27T16:12:24.763Z,41.65
2023-01-27T16:13:24.714Z,41.68
2023-01-27T16:49:22.718Z,39.70
2023-01-27T16:50:22.723Z,41.70
2023-01-27T16:51:22.604Z,39.51
2023-01-27T16:52:32.369Z,32.60
2023-01-27T16:53:23.519Z,32.77
2023-01-27T16:54:22.432Z,33.69
2023-01-27T16:55:22.396Z,34.72
2023-01-27T16:56:22.326Z,38.07
2023-01-27T16:57:22.254Z,34.31
2023-01-27T16:58:24.393Z,30.48
2023-01-27T16:59:22.153Z,30.75
2023-01-27T17:00:22.075Z,31.42
2023-01-27T17:01:22.108Z,33.21
2023-01-27T17:02:21.961Z,35.45
2023-01-27T17:03:21.946Z,31.33
2023-01-27T17:04:21.850Z,31.21
2023-01-27T17:05:21.821Z,37.04
2023-01-27T17:06:21.740Z,35.31
2023-01-27T17:07:21.690Z,38.85
2023-01-27T17:13:21.345Z,38.20
2023-01-27T17:14:30.490Z,27.33
2023-01-27T17:16:21.227Z,28.91
2023-01-27T17:17:21.128Z,32.30
2023-01-27T17:18:21.056Z,35.59
2023-01-27T17:19:20.999Z,36.94
2023-01-27T17:20:20.943Z,33.70
2023-01-27T17:21:20.883Z,37.81
2023-01-27T17:22:20.825Z,39.06
2023-01-27T17:23:20.772Z,38.77
2023-01-27T17:24:20.786Z,40.71
2023-01-27T17:25:20.661Z,29.24
2023-01-27T17:26:20.592Z,30.73
2023-01-27T17:27:20.547Z,36.08
2023-01-27T17:29:20.430Z,39.42
2023-01-27T17:30:20.361Z,37.57
2023-01-27T17:31:20.412Z,30.39
2023-01-27T17:32:20.253Z,29.87
2023-01-27T17:33:20.184Z,36.86
2023-01-27T17:34:20.131Z,35.66
2023-01-27T17:35:20.067Z,40.11
2023-01-27T17:36:20.012Z,32.88
2023-01-27T17:37:19.961Z,29.12
2023-01-27T17:38:19.897Z,29.84
2023-01-27T17:39:19.849Z,31.74
2023-01-27T17:40:19.782Z,36.35
2023-01-27T17:41:19.720Z,37.30
2023-01-27T17:42:19.660Z,28.49
2023-01-27T17:43:19.601Z,29.13
2023-01-27T17:44:19.539Z,32.39
2023-01-27T17:45:19.488Z,30.99
2023-01-27T17:46:19.506Z,35.66
2023-01-27T17:47:19.370Z,34.44
2023-01-27T17:48:19.295Z,26.28
2023-01-27T17:49:19.256Z,31.96
2023-01-27T17:50:19.184Z,35.27
2023-01-27T17:51:19.136Z,32.65
2023-01-27T17:52:19.071Z,39.22
2023-01-27T17:53:19.008Z,33.69
2023-01-27T17:54:18.968Z,29.49
2023-01-27T17:55:18.909Z,34.81
2023-01-27T17:56:18.839Z,36.97
2023-01-27T17:57:21.206Z,35.66
2023-01-27T17:58:18.738Z,35.91
2023-01-27T17:59:18.706Z,33.87
2023-01-27T18:00:18.616Z,27.20
2023-01-27T18:01:18.623Z,31.83
2023-01-27T18:02:18.533Z,35.67